Time;durP1;ratioP1;P1;durP2;ratioP2;P2;SDS_P1;SDS_P2;PMS_P1;PMS_P2;Temp;Humidity;BMP_temperature;BMP_pressure;BME280_temperature;BME280_humidity;BME280_pressure;Samples;Min_cycle;Max_cycle;Signal;HPM_P1;HPM_P2
2021/03/15 00:00:33;;;;;;;11.60;10.80;;;3.70;99.90;;;;;;5004096;28;20486;-79
2021/03/15 00:03:00;;;;;;;11.03;10.33;;;3.70;99.90;;;;;;5013922;28;20440;-78
2021/03/15 00:05:27;;;;;;;11.67;10.70;;;3.70;99.90;;;;;;5013660;28;20446;-78
2021/03/15 00:07:53;;;;;;;11.67;10.87;;;3.70;99.90;;;;;;5014366;28;20431;-77
2021/03/15 00:10:19;;;;;;;11.73;10.83;;;3.80;99.90;;;;;;5008959;28;20475;-78
2021/03/15 00:12:46;;;;;;;11.20;10.50;;;3.80;99.90;;;;;;5013651;28;20933;-78
2021/03/15 00:15:14;;;;;;;10.70;10.00;;;3.80;99.90;;;;;;5008865;28;20462;-78
2021/03/15 00:17:40;;;;;;;11.13;10.40;;;3.80;99.90;;;;;;5003928;28;20450;-78
2021/03/15 00:20:11;;;;;;;11.30;10.60;;;3.80;99.90;;;;;;5013330;28;20490;-78
2021/03/15 00:22:37;;;;;;;11.20;10.50;;;3.80;99.90;;;;;;5049089;23;20483;-78
2021/03/15 00:25:06;;;;;;;10.73;10.03;;;3.70;99.90;;;;;;4996125;28;20462;-78
2021/03/15 00:27:32;;;;;;;11.00;10.30;;;3.60;99.90;;;;;;5013128;28;20450;-78
2021/03/15 00:29:58;;;;;;;11.13;10.40;;;3.50;99.90;;;;;;5014046;28;20502;-78
2021/03/15 00:32:25;;;;;;;12.07;10.93;;;3.40;99.90;;;;;;4996516;28;20462;-78
2021/03/15 00:34:51;;;;;;;11.87;11.07;;;3.40;99.90;;;;;;4990313;28;20848;-78
2021/03/15 00:37:18;;;;;;;12.07;11.20;;;3.40;99.90;;;;;;4994531;28;20456;-78
2021/03/15 00:39:45;;;;;;;10.93;10.23;;;3.30;99.90;;;;;;4989787;28;20562;-78
2021/03/15 00:42:11;;;;;;;11.20;10.37;;;3.30;99.90;;;;;;5010110;28;20445;-78
2021/03/15 00:44:37;;;;;;;11.20;10.43;;;3.20;99.90;;;;;;4989957;28;20461;-77
2021/03/15 00:47:05;;;;;;;11.10;10.30;;;3.20;99.90;;;;;;4993539;28;20518;-78
2021/03/15 00:49:32;;;;;;;11.30;10.50;;;3.20;99.90;;;;;;5005295;28;20900;-77
2021/03/15 00:51:58;;;;;;;11.10;10.30;;;3.20;99.90;;;;;;4987366;28;20456;-77
2021/03/15 00:54:26;;;;;;;11.27;10.47;;;3.20;99.90;;;;;;4991499;28;20510;-78
2021/03/15 00:56:54;;;;;;;10.90;10.13;;;3.20;99.90;;;;;;4980985;28;20462;-78
2021/03/15 00:59:20;;;;;;;10.90;10.20;;;3.20;99.90;;;;;;5011165;28;20440;-78
2021/03/15 01:01:47;;;;;;;11.13;10.23;;;3.20;99.90;;;;;;5005972;28;20895;-78
2021/03/15 01:04:15;;;;;;;10.77;9.90;;;3.10;99.90;;;;;;4994152;28;20455;-78
2021/03/15 01:07:00;;;;;;;10.73;10.03;;;3.20;99.90;;;;;;4996466;28;20484;-77
2021/03/15 01:09:38;;;;;;;10.57;9.90;;;3.20;99.90;;;;;;4988108;28;20447;-78
2021/03/15 01:12:09;;;;;;;10.90;10.10;;;3.20;99.90;;;;;;4986923;28;20553;-78
2021/03/15 01:14:35;;;;;;;10.80;10.10;;;3.10;99.90;;;;;;4996805;28;20443;-77
2021/03/15 01:17:12;;;;;;;11.47;10.60;;;3.10;99.90;;;;;;4991998;28;20545;-78
2021/03/15 01:19:40;;;;;;;11.10;10.30;;;3.10;99.90;;;;;;4989420;28;20488;-78
2021/03/15 01:22:06;;;;;;;11.60;10.80;;;3.10;99.90;;;;;;4992579;28;20537;-78
2021/03/15 01:24:33;;;;;;;11.20;10.43;;;3.10;99.90;;;;;;4986980;28;20458;-78
2021/03/15 01:27:00;;;;;;;12.30;11.40;;;3.00;99.90;;;;;;5005091;28;20449;-78
2021/03/15 01:29:26;;;;;;;11.07;10.30;;;3.10;99.90;;;;;;5002682;28;20535;-78
2021/03/15 01:31:53;;;;;;;11.87;11.07;;;3.00;99.90;;;;;;4994921;28;20468;-78
2021/03/15 01:34:19;;;;;;;11.60;10.90;;;3.00;99.90;;;;;;4994593;28;20441;-78
2021/03/15 01:36:45;;;;;;;11.47;10.63;;;3.00;99.90;;;;;;4984955;28;20480;-77
2021/03/15 01:39:12;;;;;;;11.00;10.30;;;3.10;99.90;;;;;;4990617;28;20456;-78
2021/03/15 01:41:38;;;;;;;12.13;11.33;;;3.00;99.90;;;;;;5007306;28;20460;-78
2021/03/15 01:44:06;;;;;;;11.30;10.60;;;3.00;99.90;;;;;;5004253;28;20447;-77
2021/03/15 01:46:32;;;;;;;11.40;10.70;;;3.00;99.90;;;;;;5007672;28;20444;-78
2021/03/15 01:48:59;;;;;;;11.67;10.80;;;3.00;99.90;;;;;;5004640;28;20833;-78
2021/03/15 01:51:25;;;;;;;11.50;10.70;;;3.00;99.90;;;;;;4991582;28;20476;-77
2021/03/15 01:53:51;;;;;;;11.33;10.63;;;3.00;99.90;;;;;;4979224;28;20447;-78
2021/03/15 01:56:18;;;;;;;10.87;10.23;;;3.00;99.90;;;;;;4989568;28;20456;-78
2021/03/15 01:58:46;;;;;;;11.60;10.80;;;3.00;99.90;;;;;;4997600;28;20829;-77
2021/03/15 02:01:13;;;;;;;11.67;10.83;;;3.00;99.90;;;;;;4983282;28;20922;-78
2021/03/15 02:03:40;;;;;;;11.83;11.03;;;3.00;99.90;;;;;;5004026;28;20440;-78
2021/03/15 02:06:06;;;;;;;10.97;10.27;;;3.00;99.90;;;;;;5017891;28;20992;-77
2021/03/15 02:08:32;;;;;;;11.20;10.50;;;3.00;99.90;;;;;;5000638;28;20854;-78
2021/03/15 02:11:04;;;;;;;11.13;10.43;;;3.10;99.90;;;;;;4992663;28;20460;-78
2021/03/15 02:13:54;;;;;;;12.13;11.23;;;3.10;99.90;;;;;;4994332;28;20449;-78
2021/03/15 02:16:32;;;;;;;11.27;10.57;;;3.10;99.90;;;;;;5002028;28;20449;-78
2021/03/15 02:19:19;;;;;;;11.93;11.13;;;3.20;99.90;;;;;;4975019;28;20463;-77
2021/03/15 02:22:11;;;;;;;11.60;10.80;;;3.30;99.90;;;;;;4973898;28;20495;-78
2021/03/15 02:24:57;;;;;;;12.10;11.30;;;3.30;99.90;;;;;;4971486;28;20445;-77
2021/03/15 02:27:51;;;;;;;11.67;10.87;;;3.30;99.90;;;;;;4985562;28;20654;-78
2021/03/15 02:31:10;;;;;;;11.27;10.57;;;3.30;99.90;;;;;;4989632;28;20449;-78
2021/03/15 02:34:14;;;;;;;11.53;10.73;;;3.20;99.90;;;;;;4947096;28;20447;-78
2021/03/15 02:36:43;;;;;;;11.40;10.57;;;3.20;99.90;;;;;;4944182;28;20457;-78
2021/03/15 02:39:13;;;;;;;11.33;10.43;;;3.20;99.90;;;;;;4985178;28;20455;-78
2021/03/15 02:41:42;;;;;;;11.53;10.73;;;3.20;99.90;;;;;;4987132;28;20482;-78
2021/03/15 02:44:10;;;;;;;11.33;10.53;;;3.10;99.90;;;;;;4986126;28;20456;-78
2021/03/15 02:46:37;;;;;;;10.80;10.10;;;3.10;99.90;;;;;;5009813;28;21035;-78
2021/03/15 02:49:08;;;;;;;11.00;10.20;;;3.00;99.90;;;;;;4996770;28;20448;-78
2021/03/15 02:51:38;;;;;;;10.67;9.97;;;3.00;99.90;;;;;;5005017;28;20521;-78
2021/03/15 02:54:07;;;;;;;10.50;9.90;;;3.00;99.90;;;;;;4993499;28;20559;-78
2021/03/15 02:56:38;;;;;;;11.00;10.17;;;3.00;99.90;;;;;;4996609;28;20871;-78
2021/03/15 02:59:06;;;;;;;11.03;10.33;;;3.00;99.90;;;;;;5007206;28;20449;-78
2021/03/15 03:01:34;;;;;;;10.73;10.03;;;3.00;99.90;;;;;;5005234;28;20482;-78
2021/03/15 03:04:02;;;;;;;11.67;10.67;;;3.10;99.90;;;;;;4993182;28;20459;-78
2021/03/15 03:06:31;;;;;;;11.53;10.83;;;3.10;99.90;;;;;;5006911;28;20453;-78
2021/03/15 03:09:00;;;;;;;12.23;11.20;;;3.20;99.90;;;;;;4984984;28;20448;-78
2021/03/15 03:11:29;;;;;;;11.73;10.73;;;3.20;99.90;;;;;;5005543;28;20463;-78
2021/03/15 03:13:57;;;;;;;11.13;10.43;;;3.30;99.90;;;;;;4982752;28;20448;-78
2021/03/15 03:16:28;;;;;;;5.20;4.20;;;3.30;99.90;;;;;;4985718;28;20459;-78
2021/03/15 03:18:55;;;;;;;4.50;3.80;;;3.40;99.90;;;;;;4985287;28;20459;-78
2021/03/15 03:21:24;;;;;;;4.30;3.90;;;3.40;99.90;;;;;;5006246;28;20990;-78
2021/03/15 03:23:53;;;;;;;4.10;3.70;;;3.40;99.90;;;;;;5006511;28;20445;-77
2021/03/15 03:26:22;;;;;;;7.20;4.03;;;3.40;99.90;;;;;;4996717;28;20979;-77
2021/03/15 03:28:51;;;;;;;4.33;3.93;;;3.40;99.90;;;;;;5003065;28;20811;-77
2021/03/15 03:31:19;;;;;;;7.87;4.23;;;3.40;99.90;;;;;;4993531;28;20824;-78
2021/03/15 03:33:45;;;;;;;4.80;4.07;;;3.40;99.90;;;;;;4987376;28;20445;-77
2021/03/15 03:36:12;;;;;;;6.60;4.30;;;3.40;99.90;;;;;;5003455;28;20867;-77
2021/03/15 03:38:39;;;;;;;4.63;3.90;;;3.40;99.90;;;;;;4990285;28;20508;-78
2021/03/15 03:41:05;;;;;;;6.90;4.47;;;3.40;99.90;;;;;;4995325;28;20475;-79
2021/03/15 03:43:31;;;;;;;4.80;4.30;;;3.40;99.90;;;;;;5011833;28;20434;-82
2021/03/15 03:45:58;;;;;;;7.60;3.97;;;3.40;99.90;;;;;;4994001;28;20517;-81
2021/03/15 03:48:25;;;;;;;4.27;3.87;;;3.40;99.90;;;;;;4995709;28;20522;-77
2021/03/15 03:50:52;;;;;;;7.67;4.53;;;3.40;99.90;;;;;;4991879;28;20451;-77
2021/03/15 03:53:24;;;;;;;5.77;4.73;;;3.40;99.90;;;;;;4985165;28;20480;-77
2021/03/15 03:55:58;;;;;;;7.30;4.17;;;3.40;99.90;;;;;;5006063;28;20438;-77
2021/03/15 03:58:25;;;;;;;5.87;4.30;;;3.40;99.90;;;;;;5005923;28;20452;-79
2021/03/15 04:00:53;;;;;;;5.17;4.10;;;3.40;99.90;;;;;;4985392;28;20490;-78
2021/03/15 04:03:22;;;;;;;5.43;4.10;;;3.30;99.90;;;;;;5004327;28;20464;-78
2021/03/15 04:05:51;;;;;;;6.23;4.50;;;3.40;99.90;;;;;;5009656;28;20925;-77
2021/03/15 04:08:22;;;;;;;6.00;4.03;;;3.40;99.90;;;;;;5009605;28;20533;-78
2021/03/15 04:10:50;;;;;;;5.03;3.93;;;3.40;99.90;;;;;;4991704;28;20962;-79
2021/03/15 04:13:19;;;;;;;8.70;4.50;;;3.50;99.90;;;;;;4989529;28;20488;-78
2021/03/15 04:15:47;;;;;;;6.80;4.00;;;3.50;99.90;;;;;;5006449;28;20438;-78
2021/03/15 04:18:16;;;;;;;5.30;4.00;;;3.50;99.90;;;;;;5010630;28;20988;-78
2021/03/15 04:20:47;;;;;;;6.60;3.83;;;3.60;99.90;;;;;;5010281;28;20477;-79
2021/03/15 04:23:17;;;;;;;6.37;4.00;;;3.60;99.90;;;;;;5004509;28;20468;-77
2021/03/15 04:25:45;;;;;;;5.07;3.53;;;3.70;99.90;;;;;;5008791;28;20502;-77
2021/03/15 04:28:12;;;;;;;5.17;4.13;;;3.70;99.90;;;;;;4993948;28;20459;-79
2021/03/15 04:30:39;;;;;;;4.47;4.00;;;3.70;99.90;;;;;;5002725;28;20439;-80
2021/03/15 04:33:06;;;;;;;6.37;4.17;;;3.80;99.90;;;;;;4984597;28;20490;-79
2021/03/15 04:35:35;;;;;;;7.33;4.77;;;3.80;99.90;;;;;;5007104;28;20497;-79
2021/03/15 04:38:05;;;;;;;6.33;3.57;;;3.80;99.90;;;;;;4992925;28;20529;-79
2021/03/15 04:40:34;;;;;;;4.90;4.40;;;3.80;99.90;;;;;;5014458;28;20472;-79
2021/03/15 04:43:00;;;;;;;4.13;3.77;;;3.80;99.90;;;;;;4991396;28;20479;-79
2021/03/15 04:45:28;;;;;;;5.57;4.17;;;3.80;99.90;;;;;;4994232;28;20460;-77
2021/03/15 04:47:55;;;;;;;5.43;4.20;;;3.80;99.90;;;;;;4995133;28;20523;-79
2021/03/15 04:50:22;;;;;;;6.60;4.57;;;3.80;99.90;;;;;;5010173;28;20459;-80
2021/03/15 04:52:49;;;;;;;5.83;4.10;;;3.80;99.90;;;;;;4990899;28;20487;-79
2021/03/15 04:55:16;;;;;;;5.47;4.20;;;3.80;99.90;;;;;;4998103;28;20436;-82
2021/03/15 04:57:44;;;;;;;4.40;4.00;;;3.80;99.90;;;;;;5013778;28;20808;-80
2021/03/15 05:00:13;;;;;;;4.83;3.97;;;3.80;99.90;;;;;;5011252;28;20475;-77
2021/03/15 05:02:43;;;;;;;5.70;4.20;;;3.80;99.90;;;;;;4987662;28;20472;-77
2021/03/15 05:05:12;;;;;;;7.30;4.43;;;3.80;99.90;;;;;;4991412;28;20878;-78
2021/03/15 05:07:41;;;;;;;6.20;4.00;;;3.80;99.90;;;;;;5004412;28;20975;-78
2021/03/15 05:10:09;;;;;;;8.67;4.00;;;3.80;99.90;;;;;;5000236;28;20434;-79
2021/03/15 05:12:37;;;;;;;5.47;3.80;;;3.80;99.90;;;;;;5004176;28;20472;-78
2021/03/15 05:15:07;;;;;;;4.90;3.87;;;3.80;99.90;;;;;;4990259;28;20837;-80
2021/03/15 05:17:35;;;;;;;6.67;4.40;;;3.80;99.90;;;;;;5001921;28;20542;-80
2021/03/15 05:20:04;;;;;;;5.20;3.70;;;3.80;99.90;;;;;;5004798;28;20578;-80
2021/03/15 05:22:32;;;;;;;4.80;3.97;;;3.80;99.90;;;;;;5003878;28;20489;-80
2021/03/15 05:25:00;;;;;;;4.87;3.70;;;3.90;99.90;;;;;;5004213;28;20939;-81
2021/03/15 05:27:28;;;;;;;4.27;3.40;;;3.90;99.90;;;;;;4996137;28;20441;-80
2021/03/15 05:29:57;;;;;;;3.80;3.50;;;3.90;99.90;;;;;;5003803;28;20440;-80
2021/03/15 05:32:25;;;;;;;3.60;3.30;;;3.90;99.90;;;;;;4995529;28;20440;-79
2021/03/15 05:34:53;;;;;;;6.73;4.10;;;3.90;99.90;;;;;;4991612;28;20470;-80
2021/03/15 05:37:19;;;;;;;6.00;3.67;;;3.90;99.90;;;;;;5008447;28;20431;-79
2021/03/15 05:39:46;;;;;;;4.47;4.07;;;3.90;99.90;;;;;;4991777;28;20937;-79
2021/03/15 05:42:25;;;;;;;5.23;3.73;;;3.90;99.90;;;;;;5007992;28;20463;-79
2021/03/15 05:45:13;;;;;;;4.07;3.50;;;3.90;99.90;;;;;;4990911;28;20448;-80
2021/03/15 05:48:03;;;;;;;4.60;3.80;;;3.90;99.90;;;;;;5007445;28;20447;-80
2021/03/15 05:50:55;;;;;;;3.70;3.40;;;4.00;99.90;;;;;;4986982;28;20439;-80
2021/03/15 05:53:51;;;;;;;3.80;3.50;;;4.00;99.90;;;;;;5011023;28;20469;-80
2021/03/15 05:56:31;;;;;;;3.73;3.43;;;4.00;99.90;;;;;;4976921;28;20455;-79
2021/03/15 05:59:17;;;;;;;4.03;3.10;;;4.00;99.90;;;;;;5003298;28;20437;-80
2021/03/15 06:01:56;;;;;;;3.47;3.07;;;4.10;99.90;;;;;;5010990;28;20526;-80
2021/03/15 06:04:59;;;;;;;3.20;2.90;;;4.10;99.90;;;;;;5008339;28;20534;-79
2021/03/15 06:07:29;;;;;;;4.07;2.90;;;4.10;99.90;;;;;;4957060;28;20446;-80
2021/03/15 06:10:04;;;;;;;4.33;3.67;;;4.20;99.90;;;;;;4987377;28;20535;-80
2021/03/15 06:12:37;;;;;;;3.60;3.30;;;4.10;99.90;;;;;;5008791;28;20544;-80
2021/03/15 06:15:05;;;;;;;3.10;2.87;;;4.20;99.90;;;;;;5006725;28;20463;-80
2021/03/15 06:17:34;;;;;;;3.30;3.00;;;4.20;99.90;;;;;;5006996;28;20508;-80
2021/03/15 06:20:04;;;;;;;3.77;3.47;;;4.20;99.90;;;;;;5010368;28;20431;-80
2021/03/15 06:22:33;;;;;;;3.30;3.10;;;4.30;99.90;;;;;;5037631;23;20487;-78
2021/03/15 06:25:00;;;;;;;4.33;3.37;;;4.30;99.90;;;;;;5018348;28;20497;-79
2021/03/15 06:27:28;;;;;;;3.10;2.90;;;4.40;99.90;;;;;;5001551;28;20455;-78
2021/03/15 06:29:56;;;;;;;3.23;2.93;;;4.40;99.90;;;;;;5007058;28;20486;-78
2021/03/15 06:32:23;;;;;;;5.80;5.40;;;4.40;99.90;;;;;;4995872;28;20482;-79
2021/03/15 06:34:54;;;;;;;6.30;5.80;;;4.50;99.90;;;;;;4996188;28;20475;-81
2021/03/15 06:37:21;;;;;;;6.63;5.77;;;4.50;99.90;;;;;;5004541;28;20953;-81
2021/03/15 06:39:50;;;;;;;6.10;5.50;;;4.40;99.90;;;;;;5009826;28;20442;-80
2021/03/15 06:42:18;;;;;;;5.97;5.47;;;4.40;99.90;;;;;;4996850;28;20497;-81
2021/03/15 06:44:44;;;;;;;5.73;5.07;;;4.40;99.90;;;;;;5013930;28;20440;-80
2021/03/15 06:47:11;;;;;;;5.50;5.17;;;4.30;99.90;;;;;;5005132;28;20451;-81
2021/03/15 06:49:38;;;;;;;5.50;5.10;;;4.30;99.90;;;;;;5006631;28;20460;-81
2021/03/15 06:52:07;;;;;;;5.63;5.30;;;4.30;99.90;;;;;;5010522;28;20460;-82
2021/03/15 06:54:34;;;;;;;5.90;5.50;;;4.40;99.90;;;;;;5004283;28;20448;-82
2021/03/15 06:57:18;;;;;;;6.40;5.77;;;4.40;99.90;;;;;;5021660;28;20444;-81
2021/03/15 06:59:52;;;;;;;6.37;5.87;;;4.40;99.90;;;;;;5016016;28;20446;-82
2021/03/15 07:02:24;;;;;;;5.90;5.50;;;4.50;99.90;;;;;;5007100;28;20899;-82
2021/03/15 07:04:51;;;;;;;5.10;4.70;;;4.50;99.90;;;;;;5006931;28;20462;-81
2021/03/15 07:07:26;;;;;;;5.40;4.93;;;4.60;99.90;;;;;;5012726;28;20876;-81
2021/03/15 07:09:54;;;;;;;3.60;3.27;;;4.70;99.90;;;;;;5006884;28;20446;-82
2021/03/15 07:12:22;;;;;;;3.27;3.07;;;4.70;99.90;;;;;;4997876;28;20827;-81
2021/03/15 07:14:49;;;;;;;4.10;3.70;;;4.80;99.90;;;;;;5024109;28;20509;-82
2021/03/15 07:17:27;;;;;;;5.50;5.10;;;4.90;99.90;;;;;;5026499;28;20193;-83
2021/03/15 07:19:54;;;;;;;4.80;4.50;;;5.00;99.90;;;;;;4999348;28;20456;-82
2021/03/15 07:22:22;;;;;;;6.47;5.97;;;5.00;99.90;;;;;;5025288;28;20286;-82
2021/03/15 07:25:10;;;;;;;4.80;4.40;;;5.10;99.90;;;;;;5014447;28;20440;-78
2021/03/15 07:27:39;;;;;;;4.97;4.67;;;5.40;99.90;;;;;;5006777;28;20436;-79
2021/03/15 07:30:29;;;;;;;5.60;5.00;;;5.60;99.90;;;;;;5000704;28;20451;-79
2021/03/15 07:32:57;;;;;;;5.20;4.70;;;5.90;99.90;;;;;;5013211;28;20576;-79
2021/03/15 07:35:26;;;;;;;5.70;5.23;;;6.00;99.90;;;;;;5010590;28;20208;-78
2021/03/15 07:37:52;;;;;;;3.30;3.00;;;6.00;99.90;;;;;;5001513;28;20205;-79
2021/03/15 07:40:42;;;;;;;5.30;4.90;;;6.20;99.90;;;;;;4988523;28;20224;-82
2021/03/15 07:43:10;;;;;;;6.03;5.63;;;6.30;99.90;;;;;;4998341;28;20690;-79
2021/03/15 07:45:43;;;;;;;5.80;5.40;;;6.10;99.90;;;;;;5000467;28;20205;-78
2021/03/15 07:48:12;;;;;;;5.40;5.03;;;5.80;99.90;;;;;;5000570;28;20205;-79
2021/03/15 07:50:40;;;;;;;5.30;4.90;;;5.70;99.90;;;;;;4991026;28;20189;-78
2021/03/15 07:53:07;;;;;;;3.50;3.27;;;5.40;99.90;;;;;;5017627;28;20229;-79
2021/03/15 07:55:36;;;;;;;5.63;5.23;;;5.20;99.90;;;;;;4998094;28;20213;-79
2021/03/15 07:58:17;;;;;;;4.87;4.57;;;5.10;99.90;;;;;;4992635;28;20239;-79
2021/03/15 08:00:43;;;;;;;5.13;4.73;;;5.10;99.90;;;;;;5008656;28;20229;-78
2021/03/15 08:03:10;;;;;;;5.57;5.20;;;5.00;99.90;;;;;;5007953;28;20225;-79
2021/03/15 08:05:36;;;;;;;4.63;4.40;;;5.00;99.90;;;;;;4998856;28;20496;-79
2021/03/15 08:08:03;;;;;;;6.60;6.00;;;5.00;99.90;;;;;;5007630;28;20193;-77
2021/03/15 08:10:29;;;;;;;6.20;5.80;;;5.00;99.90;;;;;;4996523;28;20694;-79
2021/03/15 08:12:57;;;;;;;6.00;5.60;;;5.00;99.90;;;;;;5013745;28;20479;-81
2021/03/15 08:15:25;;;;;;;6.20;5.80;;;5.10;99.90;;;;;;5003810;28;20271;-82
2021/03/15 08:17:53;;;;;;;5.77;5.47;;;5.20;99.90;;;;;;4990554;28;20202;-78
2021/03/15 08:20:20;;;;;;;5.40;5.10;;;5.30;99.90;;;;;;4990548;28;20221;-79
2021/03/15 08:22:49;;;;;;;4.67;4.47;;;5.40;99.90;;;;;;5011036;28;20225;-79
2021/03/15 08:25:16;;;;;;;4.43;4.17;;;5.40;99.90;;;;;;4993330;28;20216;-79
2021/03/15 08:27:43;;;;;;;5.07;4.77;;;5.50;99.90;;;;;;4997212;28;20202;-78
2021/03/15 08:30:16;;;;;;;5.77;5.47;;;5.60;99.90;;;;;;4997039;28;20202;-80
2021/03/15 08:32:44;;;;;;;4.43;4.23;;;5.80;99.90;;;;;;4995484;28;20256;-78
2021/03/15 08:35:14;;;;;;;4.97;4.70;;;5.80;99.90;;;;;;5002387;28;20236;-80
2021/03/15 08:38:00;;;;;;;4.67;4.47;;;6.00;99.90;;;;;;4993414;28;20201;-79
2021/03/15 08:40:55;;;;;;;5.20;4.90;;;6.20;99.90;;;;;;4981929;28;20690;-78
2021/03/15 08:43:41;;;;;;;3.50;3.30;;;6.30;99.90;;;;;;4988079;28;20245;-79
2021/03/15 08:46:10;;;;;;;4.00;3.80;;;6.20;99.90;;;;;;4984267;28;20198;-79
2021/03/15 08:49:05;;;;;;;3.70;3.50;;;6.20;99.90;;;;;;4986804;28;20258;-79
2021/03/15 08:51:49;;;;;;;3.37;3.17;;;6.10;99.90;;;;;;5000453;28;20198;-80
2021/03/15 08:54:31;;;;;;;6.20;5.90;;;6.10;99.90;;;;;;4995885;28;20285;-78
2021/03/15 08:56:57;;;;;;;6.07;5.67;;;6.00;99.90;;;;;;5011025;28;20584;-78
2021/03/15 08:59:31;;;;;;;3.60;3.40;;;5.90;99.90;;;;;;5015321;28;20196;-78
2021/03/15 09:02:00;;;;;;;2.13;2.03;;;5.80;99.90;;;;;;4997955;28;20255;-80
2021/03/15 09:04:33;;;;;;;2.80;2.70;;;5.70;99.90;;;;;;4989862;28;20246;-79
2021/03/15 09:07:00;;;;;;;4.90;4.70;;;5.60;99.90;;;;;;5002992;28;20243;-79
2021/03/15 09:09:29;;;;;;;4.60;4.40;;;5.50;99.90;;;;;;4990928;28;20203;-79
2021/03/15 09:11:56;;;;;;;4.53;4.23;;;5.50;99.90;;;;;;4998078;28;20298;-78
2021/03/15 09:14:36;;;;;;;4.40;4.10;;;5.60;99.90;;;;;;5003843;28;20200;-80
2021/03/15 09:17:30;;;;;;;4.40;4.10;;;5.70;99.90;;;;;;5005856;28;20575;-79
2021/03/15 09:19:57;;;;;;;4.20;4.00;;;5.80;99.90;;;;;;4998835;28;20264;-79
2021/03/15 09:22:25;;;;;;;4.40;4.20;;;5.90;99.90;;;;;;4983306;28;20245;-77
2021/03/15 09:24:56;;;;;;;3.80;3.60;;;6.00;99.90;;;;;;4990341;28;20197;-80
2021/03/15 09:27:33;;;;;;;4.50;4.20;;;6.00;99.90;;;;;;4986021;28;20212;-77
2021/03/15 09:30:03;;;;;;;4.77;4.57;;;6.10;99.90;;;;;;4986865;28;20210;-78
2021/03/15 09:32:32;;;;;;;4.30;4.10;;;6.20;99.90;;;;;;5004599;28;20221;-79
2021/03/15 09:35:01;;;;;;;3.87;3.67;;;6.30;99.90;;;;;;4987098;28;20201;-78
2021/03/15 09:37:28;;;;;;;3.80;3.60;;;6.30;99.90;;;;;;4992902;28;20204;-79
2021/03/15 09:39:56;;;;;;;2.80;2.70;;;6.30;99.90;;;;;;5004952;28;20204;-79
2021/03/15 09:42:23;;;;;;;7.30;6.80;;;6.20;99.90;;;;;;5007486;28;20213;-81
2021/03/15 09:44:49;;;;;;;7.63;7.23;;;6.20;99.90;;;;;;4989692;28;20205;-79
2021/03/15 09:47:24;;;;;;;6.83;6.53;;;6.20;99.90;;;;;;4999702;28;20564;-79
2021/03/15 09:49:50;;;;;;;6.50;6.10;;;6.10;99.90;;;;;;5009703;28;20201;-79
2021/03/15 09:52:32;;;;;;;7.47;7.07;;;6.10;99.90;;;;;;4994902;28;20219;-80
2021/03/15 09:55:07;;;;;;;6.20;5.90;;;6.10;99.90;;;;;;4997392;28;20698;-80
2021/03/15 09:57:35;;;;;;;6.10;5.80;;;6.10;99.90;;;;;;5000205;28;20204;-79
2021/03/15 10:00:16;;;;;;;6.93;6.53;;;6.10;99.90;;;;;;5001274;28;20201;-78
2021/03/15 10:02:53;;;;;;;6.50;6.20;;;6.10;99.90;;;;;;4988890;28;20255;-83
2021/03/15 10:05:48;;;;;;;5.50;5.20;;;6.10;99.90;;;;;;5008919;28;20209;-81
2021/03/15 10:08:34;;;;;;;5.20;4.90;;;6.10;99.90;;;;;;5007794;28;20225;-82
2021/03/15 10:11:29;;;;;;;4.20;4.00;;;6.10;99.90;;;;;;4966102;28;20299;-83
2021/03/15 10:14:17;;;;;;;5.90;5.60;;;6.30;99.90;;;;;;5009017;28;20269;-79
2021/03/15 10:17:09;;;;;;;6.50;6.10;;;6.40;99.90;;;;;;4982220;28;20239;-79
2021/03/15 10:19:45;;;;;;;5.83;5.53;;;6.60;99.90;;;;;;4993596;28;20318;-83
2021/03/15 10:22:16;;;;;;;5.50;5.20;;;6.70;99.90;;;;;;5011493;28;20224;-79
2021/03/15 10:24:45;;;;;;;4.63;4.43;;;6.80;99.90;;;;;;4989042;28;20198;-79
2021/03/15 10:27:19;;;;;;;7.57;7.17;;;7.00;99.90;;;;;;4996541;28;20201;-79
2021/03/15 10:29:58;;;;;;;7.93;7.53;;;7.10;99.90;;;;;;4996889;28;20211;-78
2021/03/15 10:32:28;;;;;;;2.10;2.00;;;7.10;99.90;;;;;;4998825;28;20626;-79
2021/03/15 10:34:59;;;;;;;7.60;7.20;;;7.20;99.90;;;;;;5008355;28;20635;-78
2021/03/15 10:37:31;;;;;;;2.60;2.50;;;7.40;99.90;;;;;;5009521;28;20195;-79
2021/03/15 10:40:19;;;;;;;2.53;2.43;;;7.70;99.90;;;;;;4991366;28;20211;-79
2021/03/15 10:42:46;;;;;;;7.00;6.70;;;7.80;99.90;;;;;;4996507;28;20214;-79
2021/03/15 10:45:14;;;;;;;4.30;4.10;;;7.90;99.90;;;;;;5000894;28;20208;-79
2021/03/15 10:47:47;;;;;;;9.00;8.50;;;7.90;99.90;;;;;;4987353;28;20560;-78
2021/03/15 10:50:27;;;;;;;9.20;8.70;;;7.90;99.90;;;;;;4998114;28;20202;-79
2021/03/15 10:53:15;;;;;;;8.90;8.50;;;8.00;99.90;;;;;;4990379;28;20715;-77
2021/03/15 10:55:43;;;;;;;2.03;1.97;;;8.10;99.90;;;;;;4988033;28;20611;-79
2021/03/15 10:58:12;;;;;;;2.10;2.00;;;8.20;99.90;;;;;;4988720;28;20199;-77
2021/03/15 11:01:01;;;;;;;2.10;2.00;;;8.40;99.90;;;;;;4993942;28;20215;-80
2021/03/15 11:03:29;;;;;;;2.10;2.00;;;8.50;99.90;;;;;;4998833;28;20228;-78
2021/03/15 11:06:05;;;;;;;2.43;2.23;;;8.60;99.90;;;;;;4989096;28;20198;-78
2021/03/15 11:08:33;;;;;;;4.53;4.33;;;8.60;99.90;;;;;;4998393;28;20201;-79
2021/03/15 11:11:17;;;;;;;6.53;6.23;;;8.60;99.90;;;;;;5007537;28;20212;-79
2021/03/15 11:13:49;;;;;;;7.47;7.07;;;8.40;99.90;;;;;;4994366;28;20712;-80
2021/03/15 11:16:17;;;;;;;6.93;6.53;;;8.40;99.90;;;;;;4996086;28;20693;-78
2021/03/15 11:18:44;;;;;;;7.53;7.13;;;8.20;99.90;;;;;;5001377;28;20196;-79
2021/03/15 11:21:12;;;;;;;7.67;7.20;;;8.00;99.90;;;;;;4996277;28;20312;-78
2021/03/15 11:24:06;;;;;;;5.80;5.50;;;7.90;99.90;;;;;;4998603;28;20263;-79
2021/03/15 11:27:04;;;;;;;7.27;6.87;;;7.80;99.90;;;;;;4996857;28;20200;-79
2021/03/15 11:29:41;;;;;;;7.40;7.00;;;7.80;99.90;;;;;;4994193;28;20206;-79
2021/03/15 11:32:31;;;;;;;6.93;6.53;;;7.90;99.90;;;;;;5005802;28;20220;-79
2021/03/15 11:35:06;;;;;;;7.57;7.17;;;7.90;99.90;;;;;;5000417;28;20481;-79
2021/03/15 11:37:47;;;;;;;7.10;6.70;;;8.00;99.90;;;;;;4994699;28;20208;-79
2021/03/15 11:40:15;;;;;;;7.00;6.60;;;8.00;99.90;;;;;;4999138;28;20279;-81
2021/03/15 11:42:54;;;;;;;7.00;6.50;;;8.00;99.90;;;;;;4998581;28;20227;-83
2021/03/15 11:45:21;;;;;;;4.73;3.80;;;7.80;99.90;;;;;;4998752;28;20237;-82
2021/03/15 11:47:50;;;;;;;3.80;3.60;;;7.70;99.90;;;;;;4994220;28;20207;-82
2021/03/15 11:50:27;;;;;;;4.20;3.90;;;7.80;99.90;;;;;;5000278;28;20569;-82
2021/03/15 11:52:59;;;;;;;4.33;4.13;;;7.70;99.90;;;;;;4989845;28;20678;-81
2021/03/15 11:55:31;;;;;;;4.90;4.60;;;7.70;99.90;;;;;;4990044;28;20202;-81
2021/03/15 11:57:58;;;;;;;7.63;7.13;;;7.70;99.90;;;;;;5000434;28;20229;-80
2021/03/15 12:00:25;;;;;;;8.20;7.70;;;7.70;99.90;;;;;;4999938;28;20202;-80
2021/03/15 12:03:12;;;;;;;7.60;7.20;;;7.80;99.90;;;;;;5002021;28;20310;-79
2021/03/15 12:06:07;;;;;;;7.23;6.83;;;8.00;99.90;;;;;;5005097;28;20282;-79
2021/03/15 12:09:00;;;;;;;7.10;6.70;;;8.10;99.90;;;;;;5006747;28;20294;-79
2021/03/15 12:11:26;;;;;;;10.10;9.40;;;8.30;99.90;;;;;;5007541;28;20199;-83
2021/03/15 12:13:53;;;;;;;7.10;6.70;;;8.40;99.90;;;;;;4988719;28;20200;-78
2021/03/15 12:16:22;;;;;;;6.70;6.30;;;8.50;99.90;;;;;;5003072;28;20195;-79
2021/03/15 12:18:48;;;;;;;7.13;6.73;;;8.60;99.90;;;;;;4985752;28;20203;-79
2021/03/15 12:21:18;;;;;;;7.40;6.90;;;8.50;99.90;;;;;;4992832;28;20208;-79
2021/03/15 12:23:51;;;;;;;10.03;9.43;;;8.50;99.90;;;;;;5040130;23;20235;-78
2021/03/15 12:26:20;;;;;;;10.03;9.43;;;8.50;99.90;;;;;;4994141;28;20246;-78
2021/03/15 12:28:53;;;;;;;10.40;9.80;;;8.40;99.90;;;;;;4997099;28;20586;-77
2021/03/15 12:31:28;;;;;;;10.17;9.57;;;8.30;99.90;;;;;;4993753;28;20206;-78
2021/03/15 12:33:56;;;;;;;9.50;8.90;;;8.10;99.90;;;;;;5009132;28;20717;-77
2021/03/15 12:36:22;;;;;;;9.73;9.13;;;7.80;99.90;;;;;;4991762;28;20206;-77
2021/03/15 12:38:50;;;;;;;7.10;6.70;;;7.60;99.90;;;;;;5008675;28;20467;-78
2021/03/15 12:41:17;;;;;;;6.50;6.20;;;7.30;99.90;;;;;;4992352;28;20218;-78
2021/03/15 12:43:44;;;;;;;8.10;7.70;;;7.20;99.90;;;;;;4992070;28;20269;-77
2021/03/15 12:46:21;;;;;;;7.27;6.87;;;7.20;99.90;;;;;;4990911;28;20913;-77
2021/03/15 12:48:49;;;;;;;7.80;7.30;;;7.20;99.90;;;;;;5008298;28;20312;-77
2021/03/15 12:51:15;;;;;;;8.83;8.23;;;7.30;99.90;;;;;;4992794;28;20229;-80
2021/03/15 12:53:42;;;;;;;7.77;7.37;;;7.30;99.90;;;;;;4991182;28;20231;-79
2021/03/15 12:56:19;;;;;;;7.20;6.80;;;7.60;99.90;;;;;;5005173;28;20203;-79
2021/03/15 12:58:46;;;;;;;8.20;7.70;;;7.70;99.90;;;;;;5008330;28;20204;-80
2021/03/15 13:01:28;;;;;;;8.10;7.60;;;7.80;99.90;;;;;;4994353;28;20215;-80
2021/03/15 13:03:57;;;;;;;7.30;6.90;;;8.20;99.90;;;;;;5007871;28;20227;-80
2021/03/15 13:06:28;;;;;;;8.97;7.30;;;8.30;99.90;;;;;;4991629;28;20231;-79
2021/03/15 13:09:05;;;;;;;7.40;6.90;;;8.20;99.90;;;;;;4986757;28;20665;-79
2021/03/15 13:11:48;;;;;;;9.00;8.50;;;8.30;99.90;;;;;;5007440;28;20270;-79
2021/03/15 13:14:34;;;;;;;9.90;9.30;;;8.50;99.90;;;;;;5010816;28;20194;-79
2021/03/15 13:17:09;;;;;;;9.60;9.10;;;8.50;99.90;;;;;;5005442;28;20270;-79